sensor_id;sensor_type;location;lat;lon;timestamp;P1;durP1;ratioP1;P2;durP2;ratioP2
44816;SDS011;30529;53.570;9.964;2022-09-09T00:03:34;18.60;;;14.60;;
44816;SDS011;30529;53.570;9.964;2022-09-09T00:08:53;17.27;;;13.87;;
44816;SDS011;30529;53.570;9.964;2022-09-09T00:14:16;20.13;;;14.47;;
44816;SDS011;30529;53.570;9.964;2022-09-09T00:17:01;18.17;;;14.10;;
44816;SDS011;30529;53.570;9.964;2022-09-09T00:19:39;19.17;;;15.87;;
44816;SDS011;30529;53.570;9.964;2022-09-09T00:22:19;19.87;;;15.70;;
44816;SDS011;30529;53.570;9.964;2022-09-09T00:24:52;19.67;;;14.80;;
44816;SDS011;30529;53.570;9.964;2022-09-09T00:29:56;19.20;;;15.87;;
44816;SDS011;30529;53.570;9.964;2022-09-09T00:32:28;19.77;;;15.70;;
44816;SDS011;30529;53.570;9.964;2022-09-09T00:34:58;20.50;;;16.17;;
44816;SDS011;30529;53.570;9.964;2022-09-09T00:37:30;20.67;;;16.40;;
44816;SDS011;30529;53.570;9.964;2022-09-09T00:39:59;21.73;;;16.57;;
44816;SDS011;30529;53.570;9.964;2022-09-09T00:42:37;23.70;;;18.30;;
44816;SDS011;30529;53.570;9.964;2022-09-09T00:47:51;25.50;;;18.83;;
44816;SDS011;30529;53.570;9.964;2022-09-09T00:58:52;30.60;;;22.47;;
44816;SDS011;30529;53.570;9.964;2022-09-09T01:01:36;29.70;;;21.10;;
44816;SDS011;30529;53.570;9.964;2022-09-09T01:04:03;29.63;;;20.83;;
44816;SDS011;30529;53.570;9.964;2022-09-09T01:06:36;26.20;;;20.07;;
44816;SDS011;30529;53.570;9.964;2022-09-09T01:09:11;26.87;;;20.40;;
44816;SDS011;30529;53.570;9.964;2022-09-09T01:14:43;24.03;;;18.63;;
44816;SDS011;30529;53.570;9.964;2022-09-09T01:17:14;25.97;;;18.93;;
44816;SDS011;30529;53.570;9.964;2022-09-09T01:22:32;27.60;;;19.33;;
44816;SDS011;30529;53.570;9.964;2022-09-09T01:25:20;22.47;;;17.63;;
44816;SDS011;30529;53.570;9.964;2022-09-09T01:27:51;24.30;;;17.43;;
44816;SDS011;30529;53.570;9.964;2022-09-09T01:30:21;24.30;;;17.33;;
44816;SDS011;30529;53.570;9.964;2022-09-09T01:32:49;21.57;;;17.40;;
44816;SDS011;30529;53.570;9.964;2022-09-09T01:35:23;25.30;;;17.43;;
44816;SDS011;30529;53.570;9.964;2022-09-09T01:37:59;23.40;;;18.10;;
44816;SDS011;30529;53.570;9.964;2022-09-09T01:40:25;22.53;;;17.43;;
44816;SDS011;30529;53.570;9.964;2022-09-09T01:42:52;22.17;;;16.50;;
44816;SDS011;30529;53.570;9.964;2022-09-09T01:45:19;21.40;;;17.10;;
44816;SDS011;30529;53.570;9.964;2022-09-09T01:47:47;23.67;;;16.63;;
44816;SDS011;30529;53.570;9.964;2022-09-09T01:50:14;20.87;;;16.43;;
44816;SDS011;30529;53.570;9.964;2022-09-09T01:52:41;22.57;;;16.27;;
44816;SDS011;30529;53.570;9.964;2022-09-09T01:55:11;23.77;;;16.73;;
44816;SDS011;30529;53.570;9.964;2022-09-09T02:00:36;20.77;;;15.90;;
44816;SDS011;30529;53.570;9.964;2022-09-09T02:03:13;24.00;;;17.03;;
44816;SDS011;30529;53.570;9.964;2022-09-09T02:06:02;22.03;;;15.73;;
44816;SDS011;30529;53.570;9.964;2022-09-09T02:08:46;20.97;;;15.47;;
44816;SDS011;30529;53.570;9.964;2022-09-09T02:11:19;26.63;;;17.10;;
44816;SDS011;30529;53.570;9.964;2022-09-09T02:13:52;22.67;;;17.20;;
44816;SDS011;30529;53.570;9.964;2022-09-09T02:21:51;24.70;;;17.43;;
44816;SDS011;30529;53.570;9.964;2022-09-09T02:24:20;21.87;;;16.13;;
44816;SDS011;30529;53.570;9.964;2022-09-09T02:26:48;22.53;;;16.60;;
44816;SDS011;30529;53.570;9.964;2022-09-09T02:29:20;21.20;;;15.90;;
44816;SDS011;30529;53.570;9.964;2022-09-09T02:31:50;22.20;;;16.20;;
44816;SDS011;30529;53.570;9.964;2022-09-09T02:34:19;21.73;;;15.97;;
44816;SDS011;30529;53.570;9.964;2022-09-09T02:36:47;22.90;;;15.93;;
44816;SDS011;30529;53.570;9.964;2022-09-09T02:39:14;21.10;;;15.60;;
44816;SDS011;30529;53.570;9.964;2022-09-09T02:41:41;22.87;;;16.50;;
44816;SDS011;30529;53.570;9.964;2022-09-09T02:44:09;20.20;;;15.97;;
44816;SDS011;30529;53.570;9.964;2022-09-09T02:49:27;19.47;;;14.47;;
44816;SDS011;30529;53.570;9.964;2022-09-09T02:52:15;17.97;;;13.97;;
44816;SDS011;30529;53.570;9.964;2022-09-09T02:54:45;19.63;;;15.37;;
44816;SDS011;30529;53.570;9.964;2022-09-09T02:57:17;21.83;;;16.13;;
44816;SDS011;30529;53.570;9.964;2022-09-09T02:59:47;19.90;;;14.40;;
44816;SDS011;30529;53.570;9.964;2022-09-09T03:02:15;19.03;;;14.57;;
44816;SDS011;30529;53.570;9.964;2022-09-09T03:04:41;15.90;;;13.50;;
44816;SDS011;30529;53.570;9.964;2022-09-09T03:07:10;16.40;;;13.00;;
44816;SDS011;30529;53.570;9.964;2022-09-09T03:09:37;16.60;;;13.70;;
44816;SDS011;30529;53.570;9.964;2022-09-09T03:12:03;16.30;;;13.10;;
44816;SDS011;30529;53.570;9.964;2022-09-09T03:14:30;17.47;;;14.13;;
44816;SDS011;30529;53.570;9.964;2022-09-09T03:16:56;16.87;;;12.63;;
44816;SDS011;30529;53.570;9.964;2022-09-09T03:19:26;16.73;;;12.07;;
44816;SDS011;30529;53.570;9.964;2022-09-09T03:21:53;15.60;;;13.30;;
44816;SDS011;30529;53.570;9.964;2022-09-09T03:24:19;15.70;;;12.37;;
44816;SDS011;30529;53.570;9.964;2022-09-09T03:26:45;16.33;;;13.00;;
44816;SDS011;30529;53.570;9.964;2022-09-09T03:29:12;17.57;;;12.93;;
44816;SDS011;30529;53.570;9.964;2022-09-09T03:31:39;16.20;;;13.43;;
44816;SDS011;30529;53.570;9.964;2022-09-09T03:34:05;14.83;;;12.40;;
44816;SDS011;30529;53.570;9.964;2022-09-09T03:36:32;16.27;;;11.67;;
44816;SDS011;30529;53.570;9.964;2022-09-09T03:38:58;15.50;;;12.43;;
44816;SDS011;30529;53.570;9.964;2022-09-09T03:41:25;14.53;;;11.50;;
44816;SDS011;30529;53.570;9.964;2022-09-09T03:43:52;15.87;;;12.87;;
44816;SDS011;30529;53.570;9.964;2022-09-09T03:46:19;15.70;;;12.23;;
44816;SDS011;30529;53.570;9.964;2022-09-09T03:48:47;16.63;;;12.83;;
44816;SDS011;30529;53.570;9.964;2022-09-09T03:51:13;14.57;;;12.17;;
44816;SDS011;30529;53.570;9.964;2022-09-09T03:53:41;15.67;;;12.10;;
44816;SDS011;30529;53.570;9.964;2022-09-09T03:56:08;16.37;;;11.73;;
44816;SDS011;30529;53.570;9.964;2022-09-09T03:58:35;14.43;;;11.80;;
44816;SDS011;30529;53.570;9.964;2022-09-09T04:01:03;14.50;;;11.10;;
44816;SDS011;30529;53.570;9.964;2022-09-09T04:03:40;14.87;;;11.77;;
44816;SDS011;30529;53.570;9.964;2022-09-09T04:06:07;16.50;;;12.10;;
44816;SDS011;30529;53.570;9.964;2022-09-09T04:08:36;13.27;;;11.87;;
44816;SDS011;30529;53.570;9.964;2022-09-09T04:11:04;16.23;;;11.97;;
44816;SDS011;30529;53.570;9.964;2022-09-09T04:13:32;13.80;;;12.20;;
44816;SDS011;30529;53.570;9.964;2022-09-09T04:16:03;16.73;;;12.00;;
44816;SDS011;30529;53.570;9.964;2022-09-09T04:18:29;15.00;;;11.40;;
44816;SDS011;30529;53.570;9.964;2022-09-09T04:20:56;14.27;;;12.47;;
44816;SDS011;30529;53.570;9.964;2022-09-09T04:23:23;16.77;;;12.10;;
44816;SDS011;30529;53.570;9.964;2022-09-09T04:25:51;14.53;;;11.63;;
44816;SDS011;30529;53.570;9.964;2022-09-09T04:28:19;14.43;;;11.13;;
44816;SDS011;30529;53.570;9.964;2022-09-09T04:30:47;14.00;;;10.97;;
44816;SDS011;30529;53.570;9.964;2022-09-09T04:33:13;13.33;;;11.47;;
44816;SDS011;30529;53.570;9.964;2022-09-09T04:35:46;13.83;;;10.47;;
44816;SDS011;30529;53.570;9.964;2022-09-09T04:38:16;16.80;;;10.73;;
44816;SDS011;30529;53.570;9.964;2022-09-09T04:40:46;18.00;;;11.90;;
44816;SDS011;30529;53.570;9.964;2022-09-09T04:43:12;15.70;;;11.17;;
44816;SDS011;30529;53.570;9.964;2022-09-09T04:45:40;14.87;;;10.43;;
44816;SDS011;30529;53.570;9.964;2022-09-09T04:48:12;13.67;;;10.10;;
44816;SDS011;30529;53.570;9.964;2022-09-09T04:50:38;14.50;;;10.57;;
44816;SDS011;30529;53.570;9.964;2022-09-09T04:53:04;13.63;;;10.97;;
44816;SDS011;30529;53.570;9.964;2022-09-09T04:55:31;14.67;;;10.73;;
44816;SDS011;30529;53.570;9.964;2022-09-09T04:57:57;15.13;;;9.93;;
44816;SDS011;30529;53.570;9.964;2022-09-09T05:00:23;12.27;;;9.80;;
44816;SDS011;30529;53.570;9.964;2022-09-09T05:02:50;14.87;;;9.70;;
44816;SDS011;30529;53.570;9.964;2022-09-09T05:05:16;11.67;;;8.57;;
44816;SDS011;30529;53.570;9.964;2022-09-09T05:07:44;11.27;;;8.73;;
44816;SDS011;30529;53.570;9.964;2022-09-09T05:10:10;10.93;;;8.47;;
44816;SDS011;30529;53.570;9.964;2022-09-09T05:12:36;12.47;;;8.43;;
44816;SDS011;30529;53.570;9.964;2022-09-09T05:15:02;10.73;;;7.90;;
44816;SDS011;30529;53.570;9.964;2022-09-09T05:17:28;9.87;;;7.63;;
44816;SDS011;30529;53.570;9.964;2022-09-09T05:19:54;10.70;;;7.87;;
44816;SDS011;30529;53.570;9.964;2022-09-09T05:22:20;9.60;;;7.93;;
44816;SDS011;30529;53.570;9.964;2022-09-09T05:24:49;9.53;;;7.40;;
44816;SDS011;30529;53.570;9.964;2022-09-09T05:27:18;9.40;;;7.33;;
44816;SDS011;30529;53.570;9.964;2022-09-09T05:29:45;9.80;;;7.07;;
44816;SDS011;30529;53.570;9.964;2022-09-09T05:32:11;9.57;;;7.20;;
44816;SDS011;30529;53.570;9.964;2022-09-09T05:34:43;10.13;;;7.47;;
44816;SDS011;30529;53.570;9.964;2022-09-09T05:37:09;9.67;;;7.90;;
44816;SDS011;30529;53.570;9.964;2022-09-09T05:39:35;10.53;;;8.00;;
44816;SDS011;30529;53.570;9.964;2022-09-09T05:42:02;11.37;;;7.87;;
44816;SDS011;30529;53.570;9.964;2022-09-09T05:44:29;8.97;;;6.70;;
44816;SDS011;30529;53.570;9.964;2022-09-09T05:46:55;11.77;;;7.27;;
44816;SDS011;30529;53.570;9.964;2022-09-09T05:49:22;10.23;;;7.40;;
44816;SDS011;30529;53.570;9.964;2022-09-09T05:51:49;10.00;;;6.80;;
44816;SDS011;30529;53.570;9.964;2022-09-09T05:54:16;7.10;;;6.40;;
44816;SDS011;30529;53.570;9.964;2022-09-09T05:56:42;7.13;;;6.10;;
44816;SDS011;30529;53.570;9.964;2022-09-09T05:59:08;9.53;;;6.73;;
44816;SDS011;30529;53.570;9.964;2022-09-09T06:01:35;8.07;;;6.70;;
44816;SDS011;30529;53.570;9.964;2022-09-09T06:04:06;9.43;;;6.80;;
44816;SDS011;30529;53.570;9.964;2022-09-09T06:06:33;8.50;;;6.50;;
44816;SDS011;30529;53.570;9.964;2022-09-09T06:09:02;7.87;;;6.20;;
44816;SDS011;30529;53.570;9.964;2022-09-09T06:11:35;8.07;;;6.13;;
44816;SDS011;30529;53.570;9.964;2022-09-09T06:14:02;8.40;;;6.93;;
44816;SDS011;30529;53.570;9.964;2022-09-09T06:16:29;8.27;;;6.43;;
44816;SDS011;30529;53.570;9.964;2022-09-09T06:18:58;7.73;;;6.10;;
44816;SDS011;30529;53.570;9.964;2022-09-09T06:23:56;8.73;;;6.30;;
44816;SDS011;30529;53.570;9.964;2022-09-09T06:26:23;9.37;;;6.27;;
44816;SDS011;30529;53.570;9.964;2022-09-09T06:28:51;8.53;;;6.10;;
44816;SDS011;30529;53.570;9.964;2022-09-09T06:31:20;9.40;;;6.67;;
44816;SDS011;30529;53.570;9.964;2022-09-09T06:33:48;9.60;;;6.20;;
44816;SDS011;30529;53.570;9.964;2022-09-09T06:36:20;8.40;;;6.63;;
44816;SDS011;30529;53.570;9.964;2022-09-09T06:38:47;10.13;;;6.23;;
44816;SDS011;30529;53.570;9.964;2022-09-09T06:41:14;11.97;;;6.77;;
44816;SDS011;30529;53.570;9.964;2022-09-09T06:43:42;12.90;;;7.33;;
44816;SDS011;30529;53.570;9.964;2022-09-09T06:46:09;8.63;;;6.00;;
44816;SDS011;30529;53.570;9.964;2022-09-09T06:48:44;10.90;;;6.27;;
44816;SDS011;30529;53.570;9.964;2022-09-09T06:51:20;8.50;;;5.47;;
44816;SDS011;30529;53.570;9.964;2022-09-09T06:53:49;9.83;;;5.67;;
44816;SDS011;30529;53.570;9.964;2022-09-09T06:56:33;10.47;;;5.77;;
44816;SDS011;30529;53.570;9.964;2022-09-09T06:59:06;11.00;;;6.30;;
44816;SDS011;30529;53.570;9.964;2022-09-09T07:01:41;8.00;;;5.30;;
44816;SDS011;30529;53.570;9.964;2022-09-09T07:04:12;9.03;;;5.20;;
44816;SDS011;30529;53.570;9.964;2022-09-09T07:06:40;7.53;;;6.00;;
44816;SDS011;30529;53.570;9.964;2022-09-09T07:09:09;10.23;;;5.67;;
44816;SDS011;30529;53.570;9.964;2022-09-09T07:14:07;10.10;;;5.87;;
44816;SDS011;30529;53.570;9.964;2022-09-09T07:16:34;6.90;;;4.60;;
44816;SDS011;30529;53.570;9.964;2022-09-09T07:19:03;7.20;;;4.43;;
44816;SDS011;30529;53.570;9.964;2022-09-09T07:21:33;6.17;;;4.30;;
44816;SDS011;30529;53.570;9.964;2022-09-09T07:23:59;8.60;;;5.23;;
44816;SDS011;30529;53.570;9.964;2022-09-09T07:26:26;6.60;;;4.70;;
44816;SDS011;30529;53.570;9.964;2022-09-09T07:28:54;9.77;;;4.70;;
44816;SDS011;30529;53.570;9.964;2022-09-09T07:31:27;6.30;;;4.37;;
44816;SDS011;30529;53.570;9.964;2022-09-09T07:33:58;11.03;;;6.03;;
44816;SDS011;30529;53.570;9.964;2022-09-09T07:36:28;8.40;;;5.00;;
44816;SDS011;30529;53.570;9.964;2022-09-09T07:38:57;8.33;;;4.70;;
44816;SDS011;30529;53.570;9.964;2022-09-09T07:41:26;5.37;;;4.30;;
44816;SDS011;30529;53.570;9.964;2022-09-09T07:44:05;5.57;;;3.57;;
44816;SDS011;30529;53.570;9.964;2022-09-09T07:46:32;5.83;;;3.73;;
44816;SDS011;30529;53.570;9.964;2022-09-09T07:48:59;6.90;;;3.80;;
44816;SDS011;30529;53.570;9.964;2022-09-09T07:51:27;6.73;;;3.60;;
44816;SDS011;30529;53.570;9.964;2022-09-09T07:53:56;6.60;;;3.80;;
44816;SDS011;30529;53.570;9.964;2022-09-09T07:56:24;7.47;;;3.60;;
44816;SDS011;30529;53.570;9.964;2022-09-09T07:58:52;6.07;;;3.47;;
44816;SDS011;30529;53.570;9.964;2022-09-09T08:01:24;6.77;;;3.87;;
44816;SDS011;30529;53.570;9.964;2022-09-09T08:03:57;7.13;;;3.93;;
44816;SDS011;30529;53.570;9.964;2022-09-09T08:06:29;7.93;;;3.70;;
44816;SDS011;30529;53.570;9.964;2022-09-09T08:09:01;6.70;;;3.80;;
44816;SDS011;30529;53.570;9.964;2022-09-09T08:11:28;7.90;;;3.73;;
44816;SDS011;30529;53.570;9.964;2022-09-09T08:13:55;6.00;;;3.63;;
44816;SDS011;30529;53.570;9.964;2022-09-09T08:16:23;8.20;;;3.93;;
44816;SDS011;30529;53.570;9.964;2022-09-09T08:18:53;8.33;;;4.00;;
44816;SDS011;30529;53.570;9.964;2022-09-09T08:21:22;4.97;;;3.90;;
44816;SDS011;30529;53.570;9.964;2022-09-09T08:23:50;9.27;;;3.90;;
44816;SDS011;30529;53.570;9.964;2022-09-09T08:26:19;4.10;;;3.60;;
44816;SDS011;30529;53.570;9.964;2022-09-09T08:28:54;9.07;;;3.60;;
44816;SDS011;30529;53.570;9.964;2022-09-09T08:31:25;8.93;;;3.73;;
44816;SDS011;30529;53.570;9.964;2022-09-09T08:33:55;6.03;;;3.50;;
44816;SDS011;30529;53.570;9.964;2022-09-09T08:36:23;5.90;;;2.97;;
44816;SDS011;30529;53.570;9.964;2022-09-09T08:38:51;5.23;;;3.27;;
44816;SDS011;30529;53.570;9.964;2022-09-09T08:47:11;31.23;;;4.20;;
44816;SDS011;30529;53.570;9.964;2022-09-09T08:50:02;9.80;;;4.00;;
44816;SDS011;30529;53.570;9.964;2022-09-09T08:55:47;4.63;;;2.63;;
44816;SDS011;30529;53.570;9.964;2022-09-09T08:58:17;5.47;;;2.80;;
44816;SDS011;30529;53.570;9.964;2022-09-09T09:09:31;6.77;;;2.23;;
44816;SDS011;30529;53.570;9.964;2022-09-09T09:12:19;4.60;;;2.13;;
44816;SDS011;30529;53.570;9.964;2022-09-09T09:14:49;7.17;;;2.47;;
44816;SDS011;30529;53.570;9.964;2022-09-09T09:17:17;3.50;;;1.80;;
44816;SDS011;30529;53.570;9.964;2022-09-09T09:19:45;2.93;;;1.87;;
44816;SDS011;30529;53.570;9.964;2022-09-09T09:22:22;3.17;;;1.50;;
44816;SDS011;30529;53.570;9.964;2022-09-09T09:25:16;3.03;;;1.60;;
44816;SDS011;30529;53.570;9.964;2022-09-09T09:27:58;5.00;;;1.70;;
44816;SDS011;30529;53.570;9.964;2022-09-09T09:30:50;3.73;;;1.93;;
44816;SDS011;30529;53.570;9.964;2022-09-09T09:33:28;3.63;;;1.83;;
44816;SDS011;30529;53.570;9.964;2022-09-09T09:36:01;4.57;;;1.83;;
44816;SDS011;30529;53.570;9.964;2022-09-09T09:38:28;3.80;;;1.57;;
44816;SDS011;30529;53.570;9.964;2022-09-09T09:40:56;3.47;;;2.10;;
44816;SDS011;30529;53.570;9.964;2022-09-09T09:43:41;6.03;;;2.43;;
44816;SDS011;30529;53.570;9.964;2022-09-09T09:46:21;3.73;;;1.90;;
44816;SDS011;30529;53.570;9.964;2022-09-09T09:49:02;4.67;;;1.73;;
44816;SDS011;30529;53.570;9.964;2022-09-09T09:51:31;3.17;;;2.20;;
44816;SDS011;30529;53.570;9.964;2022-09-09T09:54:07;3.60;;;1.70;;
44816;SDS011;30529;53.570;9.964;2022-09-09T09:56:50;4.60;;;1.87;;
44816;SDS011;30529;53.570;9.964;2022-09-09T10:01:54;32.30;;;11.93;;
44816;SDS011;30529;53.570;9.964;2022-09-09T10:04:32;25.47;;;8.43;;
44816;SDS011;30529;53.570;9.964;2022-09-09T10:06:59;14.30;;;5.00;;
44816;SDS011;30529;53.570;9.964;2022-09-09T10:09:42;12.23;;;3.90;;
44816;SDS011;30529;53.570;9.964;2022-09-09T10:12:18;7.73;;;3.07;;
44816;SDS011;30529;53.570;9.964;2022-09-09T10:22:36;3.87;;;1.73;;
44816;SDS011;30529;53.570;9.964;2022-09-09T10:25:36;7.90;;;2.40;;
44816;SDS011;30529;53.570;9.964;2022-09-09T10:37:30;3.77;;;2.07;;
44816;SDS011;30529;53.570;9.964;2022-09-09T10:40:23;5.23;;;2.17;;
44816;SDS011;30529;53.570;9.964;2022-09-09T10:43:00;3.00;;;1.70;;
44816;SDS011;30529;53.570;9.964;2022-09-09T10:45:41;7.40;;;1.83;;
44816;SDS011;30529;53.570;9.964;2022-09-09T10:56:02;5.10;;;1.33;;
44816;SDS011;30529;53.570;9.964;2022-09-09T10:58:44;4.50;;;1.47;;
44816;SDS011;30529;53.570;9.964;2022-09-09T11:01:41;2.53;;;1.33;;
44816;SDS011;30529;53.570;9.964;2022-09-09T11:04:16;4.23;;;1.70;;
44816;SDS011;30529;53.570;9.964;2022-09-09T11:06:44;2.40;;;1.43;;
44816;SDS011;30529;53.570;9.964;2022-09-09T11:09:19;5.53;;;1.63;;
44816;SDS011;30529;53.570;9.964;2022-09-09T11:11:53;3.63;;;1.40;;
44816;SDS011;30529;53.570;9.964;2022-09-09T11:16:53;3.23;;;1.30;;
44816;SDS011;30529;53.570;9.964;2022-09-09T11:19:43;2.37;;;1.37;;
44816;SDS011;30529;53.570;9.964;2022-09-09T11:24:50;2.00;;;0.83;;
44816;SDS011;30529;53.570;9.964;2022-09-09T11:27:36;3.33;;;1.40;;
44816;SDS011;30529;53.570;9.964;2022-09-09T11:33:37;2.50;;;1.30;;
44816;SDS011;30529;53.570;9.964;2022-09-09T11:36:20;4.40;;;1.50;;
44816;SDS011;30529;53.570;9.964;2022-09-09T11:38:52;2.50;;;1.10;;
44816;SDS011;30529;53.570;9.964;2022-09-09T11:41:32;3.37;;;1.57;;
44816;SDS011;30529;53.570;9.964;2022-09-09T11:44:08;4.03;;;1.20;;
44816;SDS011;30529;53.570;9.964;2022-09-09T11:46:43;3.67;;;1.33;;
44816;SDS011;30529;53.570;9.964;2022-09-09T11:51:53;2.93;;;1.03;;
44816;SDS011;30529;53.570;9.964;2022-09-09T11:54:30;3.60;;;1.30;;
44816;SDS011;30529;53.570;9.964;2022-09-09T11:56:58;7.23;;;1.57;;
44816;SDS011;30529;53.570;9.964;2022-09-09T11:59:26;5.27;;;1.63;;
44816;SDS011;30529;53.570;9.964;2022-09-09T12:04:43;3.03;;;1.50;;
44816;SDS011;30529;53.570;9.964;2022-09-09T12:12:35;4.03;;;1.57;;
44816;SDS011;30529;53.570;9.964;2022-09-09T12:17:42;3.50;;;2.13;;
44816;SDS011;30529;53.570;9.964;2022-09-09T12:20:20;4.40;;;1.77;;
44816;SDS011;30529;53.570;9.964;2022-09-09T12:28:19;4.03;;;1.40;;
44816;SDS011;30529;53.570;9.964;2022-09-09T12:31:02;4.93;;;1.53;;
44816;SDS011;30529;53.570;9.964;2022-09-09T12:33:37;4.77;;;1.47;;
44816;SDS011;30529;53.570;9.964;2022-09-09T12:36:12;5.47;;;1.63;;
44816;SDS011;30529;53.570;9.964;2022-09-09T12:38:45;4.80;;;1.77;;
44816;SDS011;30529;53.570;9.964;2022-09-09T12:41:18;5.40;;;1.60;;
44816;SDS011;30529;53.570;9.964;2022-09-09T12:43:47;7.60;;;1.70;;
44816;SDS011;30529;53.570;9.964;2022-09-09T12:46:55;5.47;;;1.53;;
44816;SDS011;30529;53.570;9.964;2022-09-09T12:49:20;6.87;;;1.50;;
44816;SDS011;30529;53.570;9.964;2022-09-09T12:52:06;5.50;;;1.77;;
44816;SDS011;30529;53.570;9.964;2022-09-09T12:54:44;4.20;;;2.00;;
44816;SDS011;30529;53.570;9.964;2022-09-09T12:57:12;3.73;;;1.57;;
44816;SDS011;30529;53.570;9.964;2022-09-09T12:59:40;2.77;;;1.70;;
44816;SDS011;30529;53.570;9.964;2022-09-09T13:02:23;4.80;;;2.27;;
44816;SDS011;30529;53.570;9.964;2022-09-09T13:04:52;4.13;;;1.50;;
44816;SDS011;30529;53.570;9.964;2022-09-09T13:07:20;10.67;;;2.60;;
44816;SDS011;30529;53.570;9.964;2022-09-09T13:09:47;6.07;;;2.33;;
44816;SDS011;30529;53.570;9.964;2022-09-09T13:12:21;6.10;;;2.30;;
44816;SDS011;30529;53.570;9.964;2022-09-09T13:14:49;4.57;;;1.93;;
44816;SDS011;30529;53.570;9.964;2022-09-09T13:17:22;6.93;;;2.60;;
44816;SDS011;30529;53.570;9.964;2022-09-09T13:19:50;7.67;;;2.40;;
44816;SDS011;30529;53.570;9.964;2022-09-09T13:25:03;4.80;;;2.33;;
44816;SDS011;30529;53.570;9.964;2022-09-09T13:27:35;9.30;;;3.13;;
44816;SDS011;30529;53.570;9.964;2022-09-09T13:30:19;12.73;;;3.83;;
44816;SDS011;30529;53.570;9.964;2022-09-09T13:35:50;9.63;;;3.20;;
44816;SDS011;30529;53.570;9.964;2022-09-09T13:38:16;10.00;;;3.03;;
44816;SDS011;30529;53.570;9.964;2022-09-09T13:43:47;9.73;;;2.43;;
44816;SDS011;30529;53.570;9.964;2022-09-09T13:48:56;6.63;;;2.37;;
44816;SDS011;30529;53.570;9.964;2022-09-09T13:51:32;4.93;;;2.30;;
44816;SDS011;30529;53.570;9.964;2022-09-09T13:54:00;9.47;;;4.20;;
44816;SDS011;30529;53.570;9.964;2022-09-09T13:56:26;8.77;;;3.47;;
44816;SDS011;30529;53.570;9.964;2022-09-09T13:58:53;8.00;;;3.10;;
44816;SDS011;30529;53.570;9.964;2022-09-09T14:01:19;5.73;;;2.63;;
44816;SDS011;30529;53.570;9.964;2022-09-09T14:03:45;6.77;;;3.07;;
44816;SDS011;30529;53.570;9.964;2022-09-09T14:06:11;7.87;;;3.20;;
44816;SDS011;30529;53.570;9.964;2022-09-09T14:08:38;6.23;;;3.30;;
44816;SDS011;30529;53.570;9.964;2022-09-09T14:11:04;8.23;;;3.87;;
44816;SDS011;30529;53.570;9.964;2022-09-09T14:13:30;9.30;;;3.93;;
44816;SDS011;30529;53.570;9.964;2022-09-09T14:15:56;7.63;;;3.27;;
44816;SDS011;30529;53.570;9.964;2022-09-09T14:18:22;4.57;;;2.63;;
44816;SDS011;30529;53.570;9.964;2022-09-09T14:20:50;6.33;;;2.70;;
44816;SDS011;30529;53.570;9.964;2022-09-09T14:23:17;7.73;;;3.00;;
44816;SDS011;30529;53.570;9.964;2022-09-09T14:25:44;7.73;;;3.03;;
44816;SDS011;30529;53.570;9.964;2022-09-09T14:28:11;9.57;;;3.27;;
44816;SDS011;30529;53.570;9.964;2022-09-09T14:30:39;9.07;;;3.23;;
44816;SDS011;30529;53.570;9.964;2022-09-09T14:33:07;6.90;;;3.47;;
44816;SDS011;30529;53.570;9.964;2022-09-09T14:35:35;8.00;;;2.70;;
44816;SDS011;30529;53.570;9.964;2022-09-09T14:38:02;10.77;;;3.37;;
44816;SDS011;30529;53.570;9.964;2022-09-09T14:40:29;12.47;;;5.07;;
44816;SDS011;30529;53.570;9.964;2022-09-09T14:42:55;13.17;;;7.50;;
44816;SDS011;30529;53.570;9.964;2022-09-09T14:45:22;9.33;;;4.10;;
44816;SDS011;30529;53.570;9.964;2022-09-09T14:47:50;11.00;;;3.60;;
44816;SDS011;30529;53.570;9.964;2022-09-09T14:50:17;4.83;;;2.53;;
44816;SDS011;30529;53.570;9.964;2022-09-09T14:52:44;8.60;;;2.43;;
44816;SDS011;30529;53.570;9.964;2022-09-09T14:55:10;5.77;;;1.90;;
44816;SDS011;30529;53.570;9.964;2022-09-09T14:57:37;8.57;;;3.77;;
44816;SDS011;30529;53.570;9.964;2022-09-09T15:00:04;6.17;;;2.30;;
44816;SDS011;30529;53.570;9.964;2022-09-09T15:02:31;4.63;;;2.63;;
44816;SDS011;30529;53.570;9.964;2022-09-09T15:04:58;6.83;;;2.43;;
44816;SDS011;30529;53.570;9.964;2022-09-09T15:07:24;4.57;;;2.10;;
44816;SDS011;30529;53.570;9.964;2022-09-09T15:09:51;6.27;;;2.90;;
44816;SDS011;30529;53.570;9.964;2022-09-09T15:12:18;6.47;;;2.17;;
44816;SDS011;30529;53.570;9.964;2022-09-09T15:14:44;6.53;;;1.73;;
44816;SDS011;30529;53.570;9.964;2022-09-09T15:17:11;2.83;;;1.70;;
44816;SDS011;30529;53.570;9.964;2022-09-09T15:19:37;2.50;;;1.50;;
44816;SDS011;30529;53.570;9.964;2022-09-09T15:22:04;4.50;;;1.93;;
44816;SDS011;30529;53.570;9.964;2022-09-09T15:24:31;7.03;;;2.37;;
44816;SDS011;30529;53.570;9.964;2022-09-09T15:26:58;5.20;;;2.13;;
44816;SDS011;30529;53.570;9.964;2022-09-09T15:29:25;5.83;;;2.47;;
44816;SDS011;30529;53.570;9.964;2022-09-09T15:31:51;5.70;;;2.33;;
44816;SDS011;30529;53.570;9.964;2022-09-09T15:34:19;5.27;;;2.00;;
44816;SDS011;30529;53.570;9.964;2022-09-09T15:36:45;5.20;;;2.00;;
44816;SDS011;30529;53.570;9.964;2022-09-09T15:39:12;8.07;;;2.60;;
44816;SDS011;30529;53.570;9.964;2022-09-09T15:41:43;8.63;;;3.07;;
44816;SDS011;30529;53.570;9.964;2022-09-09T15:44:10;9.30;;;2.40;;
44816;SDS011;30529;53.570;9.964;2022-09-09T15:49:20;9.30;;;2.70;;
44816;SDS011;30529;53.570;9.964;2022-09-09T15:51:52;3.87;;;2.03;;
44816;SDS011;30529;53.570;9.964;2022-09-09T15:54:20;3.97;;;2.27;;
44816;SDS011;30529;53.570;9.964;2022-09-09T15:56:53;3.57;;;1.50;;
44816;SDS011;30529;53.570;9.964;2022-09-09T15:59:22;3.77;;;1.67;;
44816;SDS011;30529;53.570;9.964;2022-09-09T16:01:53;3.80;;;1.60;;
44816;SDS011;30529;53.570;9.964;2022-09-09T16:04:20;4.73;;;1.80;;
44816;SDS011;30529;53.570;9.964;2022-09-09T16:06:51;4.27;;;1.90;;
44816;SDS011;30529;53.570;9.964;2022-09-09T16:09:18;7.07;;;2.10;;
44816;SDS011;30529;53.570;9.964;2022-09-09T16:11:45;5.97;;;2.10;;
44816;SDS011;30529;53.570;9.964;2022-09-09T16:14:12;7.37;;;2.03;;
44816;SDS011;30529;53.570;9.964;2022-09-09T16:16:41;6.43;;;1.70;;
44816;SDS011;30529;53.570;9.964;2022-09-09T16:19:08;7.33;;;2.10;;
44816;SDS011;30529;53.570;9.964;2022-09-09T16:21:48;4.63;;;1.80;;
44816;SDS011;30529;53.570;9.964;2022-09-09T16:24:15;3.70;;;1.70;;
44816;SDS011;30529;53.570;9.964;2022-09-09T16:26:44;4.33;;;2.13;;
44816;SDS011;30529;53.570;9.964;2022-09-09T16:29:13;5.87;;;1.60;;
44816;SDS011;30529;53.570;9.964;2022-09-09T16:31:40;5.30;;;1.83;;
44816;SDS011;30529;53.570;9.964;2022-09-09T16:34:07;4.27;;;1.57;;
44816;SDS011;30529;53.570;9.964;2022-09-09T16:36:35;3.67;;;2.00;;
44816;SDS011;30529;53.570;9.964;2022-09-09T16:39:05;5.50;;;1.97;;
44816;SDS011;30529;53.570;9.964;2022-09-09T16:41:34;3.83;;;1.77;;
44816;SDS011;30529;53.570;9.964;2022-09-09T16:44:05;3.53;;;1.63;;
44816;SDS011;30529;53.570;9.964;2022-09-09T16:46:34;4.90;;;2.03;;
44816;SDS011;30529;53.570;9.964;2022-09-09T16:49:06;5.83;;;1.90;;
44816;SDS011;30529;53.570;9.964;2022-09-09T16:51:38;6.50;;;1.97;;
44816;SDS011;30529;53.570;9.964;2022-09-09T16:54:06;4.73;;;1.80;;
44816;SDS011;30529;53.570;9.964;2022-09-09T16:56:35;3.63;;;2.17;;
44816;SDS011;30529;53.570;9.964;2022-09-09T16:59:03;4.47;;;1.97;;
44816;SDS011;30529;53.570;9.964;2022-09-09T17:01:32;2.97;;;1.87;;
44816;SDS011;30529;53.570;9.964;2022-09-09T17:04:03;4.07;;;1.90;;
44816;SDS011;30529;53.570;9.964;2022-09-09T17:06:31;3.27;;;1.50;;
44816;SDS011;30529;53.570;9.964;2022-09-09T17:09:01;5.87;;;2.33;;